Data for 04/10/2007

Time Sea-Level Adjusted Pressure Absolute Pressure Temperature Relative Humidity Dew Point   
(mb) (inHg) (mb) (inHg) (C) (F) (%) (C) (F)
00:05 1007 29.74 837 24.72 1.3 34.3 62 -5.2 22.7
00:10 1007 29.74 837 24.72 1.1 34 63 -5.2 22.6
00:15 1008 29.77 837 24.72 1 33.8 64 -5.2 22.7
00:20 1007 29.74 837 24.72 0.9 33.6 62 -5.7 21.8
00:25 1008 29.77 837 24.72 0.9 33.7 62 -5.6 22
00:30 1008 29.77 837 24.72 0.8 33.5 62 -5.6 21.9
00:35 1008 29.77 837 24.72 0.7 33.2 64 -5.4 22.3
00:40 1008 29.77 837 24.72 0.6 33.1 63 -5.5 22
00:45 1008 29.77 837 24.72 0.6 33.1 64 -5.4 22.3
00:50 1008 29.77 837 24.72 0.6 33.2 65 -5.2 22.6
00:55 1008 29.77 837 24.72 0.6 33 67 -4.8 23.3
01:00 1008 29.77 837 24.72 0.4 32.7 70 -4.5 24
01:05 1008 29.77 837 24.72 0.4 32.7 64 -5.6 21.9
01:10 1008 29.77 837 24.72 0.6 33.1 64 -5.5 22.1
01:15 1008 29.77 837 24.72 0.6 33 68 -4.7 23.6
01:20 1008 29.77 837 24.72 0.3 32.5 69 -4.7 23.5
01:25 1008 29.77 837 24.72 0.2 32.3 70 -4.7 23.5
01:30 1008 29.77 837 24.72 0.2 32.4 69 -4.8 23.3
01:35 1008 29.77 837 24.72 0.4 32.7 66 -5.3 22.5
01:40 1008 29.77 837 24.72 0.5 32.9 66 -5.1 22.9
01:45 1008 29.77 837 24.72 0.5 32.8 67 -4.9 23.2
01:50 1008 29.77 837 24.72 0.2 32.4 70 -4.7 23.5
01:55 1008 29.77 837 24.72 -0.1 31.7 70 -4.9 23.1
02:00 1008 29.77 837 24.72 -0.2 31.7 68 -5.3 22.4
02:05 1008 29.77 837 24.72 -0.2 31.7 66 -5.8 21.6
02:10 1008 29.77 837 24.72 -0.1 31.7 64 -6.2 20.9
02:15 1008 29.77 837 24.72 -0.1 31.8 64 -6.2 20.9
02:20 1008 29.77 837 24.72 -0.2 31.6 65 -6.1 21
02:25 1008 29.77 837 24.72 -0.4 31.3 65 -6.1 21.1
02:30 1008 29.77 837 24.72 -0.5 31.2 66 -6.1 21
02:35 1008 29.77 837 24.72 -0.6 31 66 -6.1 21.1
02:40 1007 29.74 837 24.72 -0.6 30.8 67 -6 21.2
02:45 1007 29.74 837 24.72 -0.7 30.7 68 -6 21.3
02:50 1007 29.74 837 24.72 -0.7 30.8 66 -6.3 20.7
02:55 1007 29.74 837 24.72 -0.7 30.8 65 -6.4 20.4
03:00 1007 29.74 837 24.72 -0.7 30.7 66 -6.3 20.6
03:05 1007 29.74 837 24.72 -0.5 31.1 65 -6.4 20.5
03:10 1007 29.74 837 24.72 -0.4 31.3 66 -5.9 21.4
03:15 1007 29.74 837 24.72 -0.4 31.2 66 -6 21.2
03:20 1007 29.74 837 24.72 -0.3 31.5 61 -6.9 19.5
03:25 1008 29.77 837 24.72 0.1 32.1 61 -6.5 20.2
03:30 1008 29.77 837 24.72 0.1 32.1 64 -6 21.2
03:35 1008 29.77 837 24.72 -0.2 31.6 65 -6.1 21.1
03:40 1008 29.77 837 24.72 -0.4 31.3 65 -6.1 21
03:45 1008 29.77 837 24.72 -0.4 31.3 63 -6.7 20
03:50 1008 29.77 837 24.72 -0.1 31.8 59 -7.2 19
03:55 1008 29.77 837 24.72 0.1 32.3 56 -7.6 18.3
04:00 1008 29.77 837 24.72 0.3 32.5 57 -7.2 19
04:05 1008 29.77 837 24.72 0.2 32.4 59 -6.9 19.5
04:10 1008 29.77 837 24.72 0.1 32.1 61 -6.5 20.3
04:15 1008 29.77 837 24.72 -0.1 31.8 63 -6.4 20.5
04:20 1008 29.77 837 24.72 -0.3 31.5 62 -6.7 19.9
04:25 1008 29.77 837 24.72 -0.3 31.4 62 -6.7 20
04:30 1008 29.77 837 24.72 -0.5 31.2 64 -6.4 20.6
04:35 1008 29.77 837 24.72 -0.6 30.9 65 -6.3 20.7
04:40 1008 29.77 837 24.72 -0.6 30.9 63 -6.9 19.6
04:45 1008 29.77 837 24.72 -0.6 31 65 -6.3 20.6
04:50 1008 29.77 837 24.72 -0.6 31 63 -6.8 19.7
04:55 1008 29.77 837 24.72 -0.5 31.1 62 -6.8 19.7
05:00 1008 29.77 837 24.72 -0.5 31.1 64 -6.6 20.1
05:05 1008 29.77 837 24.72 -0.6 30.9 63 -6.9 19.6
05:10 1008 29.77 837 24.72 -0.7 30.8 63 -6.9 19.7
05:15 1008 29.77 837 24.72 -0.8 30.6 63 -7 19.3
05:20 1008 29.77 837 24.72 -0.8 30.6 64 -6.8 19.8
05:25 1008 29.77 837 24.72 -0.8 30.5 64 -6.7 19.9
05:30 1008 29.77 837 24.72 -0.8 30.5 63 -7.1 19.2
05:35 1008 29.77 837 24.72 -0.7 30.7 64 -6.7 19.9
05:40 1008 29.77 837 24.72 -0.8 30.5 65 -6.7 20
05:45 1008 29.77 837 24.72 -0.9 30.4 64 -6.8 19.7
05:50 1008 29.77 837 24.72 -0.9 30.4 63 -7 19.4
05:55 1008 29.77 837 24.72 -0.8 30.6 63 -6.9 19.6
06:00 1008 29.77 837 24.72 -0.9 30.5 65 -6.6 20.1
06:05 1008 29.77 837 24.72 -0.9 30.4 65 -6.7 19.9
06:10 1008 29.77 837 24.72 -0.8 30.6 64 -6.8 19.8
06:15 1008 29.77 837 24.72 -0.7 30.7 64 -6.7 20
06:20 1008 29.77 837 24.72 -0.6 31 63 -6.7 19.9
06:25 1008 29.77 837 24.72 -0.6 30.8 63 -6.8 19.7
06:30 1008 29.77 837 24.72 -0.7 30.7 63 -7 19.4
06:35 1008 29.77 837 24.72 -0.6 31 59 -7.6 18.4
06:40 1008 29.77 837 24.72 -0.4 31.3 57 -7.8 18
06:45 1008 29.77 837 24.72 -0.2 31.6 55 -8.3 17.1
06:50 1008 29.77 837 24.72 -0.1 31.8 56 -7.9 17.7
06:55 1008 29.77 838 24.75 -0.1 31.8 58 -7.3 18.9
07:00 1008 29.77 838 24.75 -0.2 31.7 57 -7.7 18.2
07:05 1008 29.77 838 24.75 -0.1 31.8 56 -7.8 18
07:10 1009 29.8 838 24.75 -0.1 31.9 58 -7.4 18.6
07:15 1009 29.8 838 24.75 -0.1 31.8 59 -7.2 19.1
07:20 1009 29.8 838 24.75 -0.1 31.8 60 -6.9 19.5
07:25 1009 29.8 838 24.75 -0.2 31.6 54 -8.4 16.9
07:30 1009 29.8 838 24.75 -0.2 31.7 54 -8.3 17
07:35 1009 29.8 838 24.75 -0.1 31.7 55 -8.1 17.5
07:40 1009 29.8 838 24.75 -0.1 31.9 55 -8 17.5
07:45 1009 29.8 838 24.75 -0.1 31.8 56 -7.9 17.7
07:50 1009 29.8 838 24.75 -0.1 31.8 54 -8.4 16.8
07:55 1009 29.8 838 24.75 -0.2 31.6 49 -9.8 14.4
08:00 1009 29.8 838 24.75 -0 31.9 51 -9 15.9
08:05 1009 29.8 838 24.75 0 32.1 50 -9.2 15.4
08:10 1009 29.8 838 24.75 0.1 32.1 49 -9.5 14.9
08:15 1009 29.8 838 24.75 0.2 32.3 53 -8.3 17
08:20 1009 29.8 838 24.75 -0.2 31.7 54 -8.5 16.7
08:25 1009 29.8 838 24.75 -0.1 31.8 54 -8.4 16.9
08:30 1009 29.8 838 24.75 -0 31.9 51 -9 15.8
08:35 1009 29.8 838 24.75 -0.3 31.5 57 -7.7 18.1
08:40 1009 29.8 838 24.75 -0.3 31.4 56 -8.1 17.4
08:45 1009 29.8 838 24.75 -0.2 31.7 58 -7.6 18.4
08:50 1009 29.8 838 24.75 -0 31.9 53 -8.4 16.8
08:55 1009 29.8 838 24.75 -0 31.9 52 -8.8 16.2
09:00 1009 29.8 838 24.75 0.1 32.2 51 -8.9 16
09:05 1009 29.8 838 24.75 0.1 32.2 53 -8.2 17.2
09:10 1009 29.8 838 24.75 0.2 32.3 53 -8.4 16.9
09:15 1009 29.8 838 24.75 0.3 32.6 54 -8 17.6
09:20 1009 29.8 838 24.75 0.5 32.9 48 -9.2 15.5
09:25 1009 29.8 838 24.75 0.6 33 52 -8.3 17.1
09:30 1009 29.8 838 24.75 0.5 33 49 -8.9 16
09:35 1009 29.8 838 24.75 0.8 33.4 47 -9.3 15.3
09:40 1009 29.8 838 24.75 0.9 33.7 47 -9 15.8
09:45 1009 29.8 838 24.75 1.2 34.2 45 -9.5 14.8
09:50 1009 29.8 838 24.75 1.5 34.7 44 -9.6 14.7
09:55 1009 29.8 838 24.75 1.5 34.7 45 -9.2 15.4
10:00 1009 29.8 838 24.75 1.5 34.8 46 -9 15.8
10:05 1009 29.8 838 24.75 1.9 35.5 38 -11.1 12.1
10:10 1009 29.8 838 24.75 1.7 35.1 39 -10.9 12.3
10:15 1009 29.8 838 24.75 1.9 35.3 39 -10.5 13
10:20 1009 29.8 838 24.75 2 35.5 39 -10.4 13.2
10:25 1009 29.8 838 24.75 2.1 35.8 37 -11.1 12
10:30 1009 29.8 838 24.75 2.4 36.4 37 -10.8 12.6
10:35 1009 29.8 838 24.75 2.4 36.4 39 -10.1 13.9
10:40 1009 29.8 838 24.75 2.7 36.9 39 -9.9 14.2
10:45 1009 29.8 838 24.75 2.6 36.6 38 -10.3 13.4
10:50 1009 29.8 838 24.75 2.5 36.5 39 -10.1 13.8
10:55 1009 29.8 838 24.75 2.6 36.6 35 -11.5 11.3
11:00 1009 29.8 838 24.75 2.6 36.7 36 -11.2 11.9
11:05 1009 29.8 838 24.75 2.9 37.1 34 -11.6 11.1
11:10 1009 29.8 839 24.78 2.5 36.5 35 -11.4 11.5
11:15 1009 29.8 839 24.78 2.6 36.7 35 -11.2 11.8
11:20 1009 29.8 839 24.78 2.8 37 34 -11.4 11.4
11:25 1009 29.8 839 24.78 2.8 37.1 34 -11.4 11.5
11:30 1009 29.8 839 24.78 3 37.4 34 -11.4 11.4
11:35 1009 29.8 839 24.78 3 37.3 33 -11.8 10.8
11:40 1009 29.8 839 24.78 3.2 37.7 34 -11.2 11.9
11:45 1009 29.8 839 24.78 3.3 38 32 -11.7 10.9
11:50 1009 29.8 839 24.78 3.2 37.8 33 -11.6 11.2
11:55 1009 29.8 839 24.78 3.1 37.6 32 -12 10.4
12:00 1009 29.8 839 24.78 3.2 37.8 33 -11.6 11
12:05 1009 29.8 839 24.78 3.5 38.4 31 -12.2 10
12:10 1009 29.8 839 24.78 3.7 38.7 31 -12.1 10.3
12:15 1009 29.8 839 24.78 3.8 38.9 32 -11.3 11.6
12:20 1009 29.8 838 24.75 4 39.1 30 -12.3 9.9
12:25 1009 29.8 838 24.75 4 39.1 30 -12 10.3
12:30 1009 29.8 838 24.75 4.1 39.3 30 -12 10.4
12:35 1009 29.8 838 24.75 4.1 39.4 30 -12.1 10.2
12:40 1009 29.8 838 24.75 4 39.1 30 -12.2 10
12:45 1009 29.8 838 24.75 3.7 38.6 31 -12.1 10.2
12:50 1009 29.8 838 24.75 3.7 38.7 31 -12 10.4
12:55 1009 29.8 838 24.75 3.7 38.7 31 -11.9 10.5
13:00 1009 29.8 838 24.75 3.8 38.8 31 -11.8 10.8
13:05 1009 29.8 838 24.75 3.7 38.7 31 -11.8 10.8
13:10 1009 29.8 838 24.75 4 39.3 29 -12.3 9.9
13:15 1009 29.8 839 24.78 4.1 39.4 29 -12.2 10
13:20 1009 29.8 839 24.78 4.1 39.4 29 -12.4 9.6
13:25 1009 29.8 839 24.78 4 39.2 30 -12.2 10
13:30 1009 29.8 839 24.78 3.9 39 30 -12 10.4
13:35 1009 29.8 839 24.78 3.8 38.8 30 -12.1 10.2
13:40 1009 29.8 839 24.78 4.2 39.5 32 -11.3 11.6
13:45 1009 29.8 839 24.78 4.1 39.4 30 -11.9 10.5
13:50 1009 29.8 839 24.78 3.9 39 31 -11.8 10.7
13:55 1009 29.8 839 24.78 3.8 38.8 31 -12.1 10.3
14:00 1009 29.8 839 24.78 3.8 38.8 30 -12.1 10.2
14:05 1009 29.8 839 24.78 3.9 39 31 -11.9 10.5
14:10 1009 29.8 839 24.78 4 39.1 30 -12.1 10.3
14:15 1010 29.83 839 24.78 3.8 38.9 32 -11.5 11.3
14:20 1010 29.83 839 24.78 4.1 39.3 31 -11.7 10.9
14:25 1010 29.83 839 24.78 4 39.2 30 -11.9 10.5
14:30 1010 29.83 839 24.78 3.8 38.9 32 -11.5 11.2
14:35 1010 29.83 839 24.78 4.1 39.4 31 -11.4 11.4
14:40 1010 29.83 839 24.78 4.6 40.2 31 -11.1 12.1
14:45 1010 29.83 839 24.78 4.6 40.2 32 -10.9 12.3
14:50 1010 29.83 839 24.78 4.2 39.6 32 -11.2 11.8
14:55 1010 29.83 839 24.78 4.3 39.8 32 -11.2 11.9
15:00 1010 29.83 839 24.78 4.5 40 32 -10.7 12.7
15:05 1010 29.83 839 24.78 4.5 40.2 33 -10.6 13
15:10 1010 29.83 839 24.78 4.4 40 32 -10.7 12.7
15:15 1010 29.83 839 24.78 4.4 39.9 32 -10.9 12.5
15:20 1010 29.83 839 24.78 4.5 40.1 33 -10.3 13.5
15:25 1010 29.83 839 24.78 4.5 40.2 35 -9.7 14.5
15:30 1010 29.83 839 24.78 3.9 39 35 -10.1 13.9
15:35 1010 29.83 839 24.78 3.8 38.8 35 -10.4 13.3
15:40 1010 29.83 839 24.78 3.8 38.9 35 -10.1 13.8
15:45 1010 29.83 839 24.78 4 39.2 35 -10.1 13.9
15:50 1010 29.83 839 24.78 3.9 39.1 34 -10.4 13.3
15:55 1010 29.83 839 24.78 3.9 39 34 -10.6 12.9
16:00 1010 29.83 839 24.78 3.9 39 35 -10.1 13.8
16:05 1010 29.83 839 24.78 3.6 38.5 36 -10.1 13.9
16:10 1010 29.83 839 24.78 3.7 38.6 35 -10.5 13.1
16:15 1010 29.83 839 24.78 4 39.3 34 -10.3 13.5
16:20 1010 29.83 839 24.78 4.3 39.7 35 -9.8 14.3
16:25 1010 29.83 840 24.81 4.2 39.6 35 -9.8 14.3
16:30 1010 29.83 840 24.81 4.5 40 35 -9.9 14.3
16:35 1010 29.83 840 24.81 4.4 40 34 -10.1 13.9
16:40 1010 29.83 839 24.78 4.3 39.8 33 -10.7 12.7
16:45 1010 29.83 840 24.81 4.5 40 34 -10 14
16:50 1010 29.83 840 24.81 4.7 40.4 34 -10 14
16:55 1010 29.83 840 24.81 4.3 39.7 35 -10 13.9
17:00 1010 29.83 840 24.81 4.4 39.9 37 -8.9 16
17:05 1011 29.85 840 24.81 3.8 38.9 42 -7.9 17.9
17:10 1011 29.85 840 24.81 3.5 38.3 42 -8.2 17.3
17:15 1011 29.85 840 24.81 3.4 38.1 44 -7.8 18
17:20 1011 29.85 840 24.81 3.2 37.7 45 -7.7 18.1
17:25 1011 29.85 840 24.81 3.2 37.8 45 -7.6 18.2
17:30 1011 29.85 840 24.81 3.3 37.9 45 -7.5 18.6
17:35 1011 29.85 840 24.81 3.3 37.9 45 -7.6 18.4
17:40 1011 29.85 840 24.81 3.4 38.2 44 -7.8 18
17:45 1011 29.85 840 24.81 3.5 38.3 45 -7.5 18.6
17:50 1011 29.85 840 24.81 3.3 37.9 45 -7.6 18.3
17:55 1011 29.85 840 24.81 3 37.4 47 -7.3 18.8
18:00 1011 29.85 841 24.83 2.8 37 47 -7.3 18.8
18:05 1012 29.88 841 24.83 2.5 36.6 50 -7 19.5
18:10 1012 29.88 841 24.83 2.4 36.3 50 -7.1 19.1
18:15 1012 29.88 841 24.83 2.2 35.9 49 -7.4 18.7
18:20 1012 29.88 841 24.83 2.3 36.1 48 -7.7 18.2
18:25 1012 29.88 841 24.83 2.6 36.6 46 -7.8 17.9
18:30 1012 29.88 841 24.83 2.8 37 45 -7.9 17.8
18:35 1012 29.88 841 24.83 2.7 36.8 44 -8.4 17
18:40 1012 29.88 841 24.83 2.5 36.5 47 -7.7 18.2
18:45 1012 29.88 841 24.83 2.3 36.2 48 -7.5 18.5
18:50 1012 29.88 841 24.83 2.3 36.2 49 -7.3 18.9
18:55 1012 29.88 841 24.83 2.1 35.8 50 -7.2 19.1
19:00 1012 29.88 841 24.83 1.9 35.5 51 -7.2 19.1
19:05 1012 29.88 842 24.86 1.9 35.4 54 -6.5 20.3
19:10 1012 29.88 842 24.86 1.7 35 55 -6.5 20.3
19:15 1013 29.91 842 24.86 1.6 34.9 55 -6.4 20.4
19:20 1012 29.88 842 24.86 1.5 34.7 57 -6.2 20.9
19:25 1012 29.88 842 24.86 1.3 34.4 56 -6.4 20.4
19:30 1013 29.91 842 24.86 1.3 34.3 56 -6.6 20.1
19:35 1013 29.91 842 24.86 1.3 34.4 55 -6.7 19.9
19:40 1013 29.91 842 24.86 1.2 34.2 58 -6 21.1
19:45 1013 29.91 842 24.86 1 33.8 63 -5.4 22.4
19:50 1013 29.91 842 24.86 0.8 33.5 64 -5.2 22.6
19:55 1013 29.91 842 24.86 0.7 33.3 64 -5.3 22.5
20:00 1013 29.91 842 24.86 0.7 33.2 63 -5.6 21.8
20:05 1013 29.91 842 24.86 0.8 33.5 61 -5.9 21.3
20:10 1013 29.91 842 24.86 0.9 33.6 60 -6 21.2
20:15 1013 29.91 842 24.86 1 33.8 58 -6.3 20.6
20:20 1013 29.91 842 24.86 1 33.9 57 -6.5 20.4
20:25 1013 29.91 843 24.89 1.1 34 57 -6.5 20.3
20:30 1013 29.91 843 24.89 1.2 34.1 57 -6.3 20.6
20:35 1013 29.91 843 24.89 1.1 34 57 -6.5 20.4
20:40 1014 29.94 843 24.89 1.1 33.9 57 -6.5 20.2
20:45 1014 29.94 843 24.89 1 33.8 58 -6.3 20.6
20:50 1014 29.94 843 24.89 0.8 33.5 60 -6.2 20.9
20:55 1014 29.94 843 24.89 0.8 33.4 60 -6.1 21
21:00 1014 29.94 843 24.89 0.6 33.2 62 -5.9 21.4
21:05 1014 29.94 843 24.89 0.5 32.9 62 -5.9 21.4
21:10 1014 29.94 843 24.89 0.5 32.9 62 -5.9 21.3
21:15 1014 29.94 843 24.89 0.5 32.9 63 -5.8 21.5
21:20 1014 29.94 843 24.89 0.5 32.9 63 -5.7 21.8
21:25 1014 29.94 843 24.89 0.3 32.6 64 -5.7 21.8
21:30 1014 29.94 843 24.89 0.3 32.5 64 -5.8 21.5
21:35 1014 29.94 843 24.89 0.3 32.5 64 -5.8 21.6
21:40 1014 29.94 843 24.89 0.3 32.5 64 -5.7 21.8
21:45 1014 29.94 843 24.89 0.1 32.2 66 -5.5 22.1
21:50 1014 29.94 843 24.89 -0 31.9 67 -5.5 22.1
21:55 1014 29.94 843 24.89 -0 32 67 -5.3 22.4
22:00 1014 29.94 843 24.89 -0.1 31.9 68 -5.2 22.7
22:05 1014 29.94 843 24.89 -0.2 31.7 70 -5 23.1
22:10 1014 29.94 843 24.89 -0.2 31.6 71 -4.9 23.3
22:15 1014 29.94 843 24.89 -0.3 31.5 73 -4.6 23.8
22:20 1014 29.94 843 24.89 -0.5 31.1 75 -4.3 24.2
22:25 1014 29.94 843 24.89 -0.6 30.9 76 -4.2 24.4
22:30 1014 29.94 843 24.89 -0.5 31.1 77 -4.1 24.6
22:35 1014 29.94 843 24.89 -0.5 31.2 76 -4.1 24.6
22:40 1014 29.94 843 24.89 -0.6 30.9 77 -4.1 24.6
22:45 1014 29.94 843 24.89 -0.6 31 77 -4.2 24.5
22:50 1014 29.94 843 24.89 -0.6 31 77 -4.1 24.7
22:55 1014 29.94 843 24.89 -0.7 30.7 77 -4.2 24.5
23:00 1014 29.94 843 24.89 -0.8 30.5 77 -4.3 24.3
23:05 1014 29.94 843 24.89 -0.9 30.3 79 -4.2 24.4
23:10 1014 29.94 843 24.89 -1 30.2 77 -4.5 24
23:15 1014 29.94 843 24.89 -0.9 30.5 76 -4.6 23.7
23:20 1014 29.94 843 24.89 -0.8 30.6 75 -4.7 23.5
23:25 1014 29.94 843 24.89 -0.7 30.7 74 -4.8 23.3
23:30 1014 29.94 843 24.89 -0.6 30.9 73 -4.8 23.4
23:35 1014 29.94 843 24.89 -0.5 31.1 73 -4.7 23.5
23:40 1014 29.94 843 24.89 -0.5 31.1 73 -4.8 23.3
23:45 1014 29.94 843 24.89 -0.4 31.3 72 -4.8 23.3
23:50 1014 29.94 843 24.89 -0.5 31.1 71 -5.2 22.6
23:55 1014 29.94 843 24.89 -0.5 31.1 67 -5.8 21.5
24:00 1014 29.94 843 24.89 -0.4 31.4 66 -5.9 21.4